sensor_id;sensor_type;location;lat;lon;timestamp;temperature;humidity
64796;DHT22;51229;51.980;6.722;2023-05-03T00:02:14;7.60;99.90
64796;DHT22;51229;51.980;6.722;2023-05-03T00:04:40;7.60;99.90
64796;DHT22;51229;51.980;6.722;2023-05-03T00:07:06;7.50;99.90
64796;DHT22;51229;51.980;6.722;2023-05-03T00:09:33;7.50;99.90
64796;DHT22;51229;51.980;6.722;2023-05-03T00:12:00;7.50;99.90
64796;DHT22;51229;51.980;6.722;2023-05-03T00:14:26;7.50;99.90
64796;DHT22;51229;51.980;6.722;2023-05-03T00:16:52;7.40;99.90
64796;DHT22;51229;51.980;6.722;2023-05-03T00:19:18;7.40;99.90
64796;DHT22;51229;51.980;6.722;2023-05-03T00:21:44;7.40;99.90
64796;DHT22;51229;51.980;6.722;2023-05-03T00:24:10;7.30;99.90
64796;DHT22;51229;51.980;6.722;2023-05-03T00:26:36;7.30;99.90
64796;DHT22;51229;51.980;6.722;2023-05-03T00:29:05;7.20;99.90
64796;DHT22;51229;51.980;6.722;2023-05-03T00:31:30;7.20;99.90
64796;DHT22;51229;51.980;6.722;2023-05-03T00:33:56;7.20;99.90
64796;DHT22;51229;51.980;6.722;2023-05-03T00:36:21;7.20;99.90
64796;DHT22;51229;51.980;6.722;2023-05-03T00:38:47;7.10;99.90
64796;DHT22;51229;51.980;6.722;2023-05-03T00:41:13;7.10;99.90
64796;DHT22;51229;51.980;6.722;2023-05-03T00:43:38;7.10;99.90
64796;DHT22;51229;51.980;6.722;2023-05-03T00:46:05;7.00;99.90
64796;DHT22;51229;51.980;6.722;2023-05-03T00:48:32;7.00;99.90
64796;DHT22;51229;51.980;6.722;2023-05-03T00:51:00;6.90;99.90
64796;DHT22;51229;51.980;6.722;2023-05-03T00:53:28;6.90;99.90
64796;DHT22;51229;51.980;6.722;2023-05-03T00:55:59;6.90;99.90
64796;DHT22;51229;51.980;6.722;2023-05-03T00:58:25;6.90;99.90
64796;DHT22;51229;51.980;6.722;2023-05-03T01:00:52;6.90;99.90
64796;DHT22;51229;51.980;6.722;2023-05-03T01:03:17;6.80;99.90
64796;DHT22;51229;51.980;6.722;2023-05-03T01:05:54;6.80;99.90
64796;DHT22;51229;51.980;6.722;2023-05-03T01:08:26;6.70;99.90
64796;DHT22;51229;51.980;6.722;2023-05-03T01:11:00;6.80;99.90
64796;DHT22;51229;51.980;6.722;2023-05-03T01:13:35;6.70;99.90
64796;DHT22;51229;51.980;6.722;2023-05-03T01:16:11;6.70;99.90
64796;DHT22;51229;51.980;6.722;2023-05-03T01:18:39;6.70;99.90
64796;DHT22;51229;51.980;6.722;2023-05-03T01:21:09;6.60;99.90
64796;DHT22;51229;51.980;6.722;2023-05-03T01:23:46;6.60;99.90
64796;DHT22;51229;51.980;6.722;2023-05-03T01:26:22;6.50;99.90
64796;DHT22;51229;51.980;6.722;2023-05-03T01:28:48;6.50;99.90
64796;DHT22;51229;51.980;6.722;2023-05-03T01:34:09;6.40;99.90
64796;DHT22;51229;51.980;6.722;2023-05-03T01:36:41;6.40;99.90
64796;DHT22;51229;51.980;6.722;2023-05-03T01:39:14;6.40;99.90
64796;DHT22;51229;51.980;6.722;2023-05-03T01:41:42;6.30;99.90
64796;DHT22;51229;51.980;6.722;2023-05-03T01:44:11;6.20;99.90
64796;DHT22;51229;51.980;6.722;2023-05-03T01:46:45;6.20;99.90
64796;DHT22;51229;51.980;6.722;2023-05-03T01:49:11;6.20;99.90
64796;DHT22;51229;51.980;6.722;2023-05-03T01:51:37;6.20;99.90
64796;DHT22;51229;51.980;6.722;2023-05-03T01:54:03;6.20;99.90
64796;DHT22;51229;51.980;6.722;2023-05-03T01:56:29;6.20;99.90
64796;DHT22;51229;51.980;6.722;2023-05-03T01:58:55;6.10;99.90
64796;DHT22;51229;51.980;6.722;2023-05-03T02:01:21;6.10;99.90
64796;DHT22;51229;51.980;6.722;2023-05-03T02:03:47;6.10;99.90
64796;DHT22;51229;51.980;6.722;2023-05-03T02:06:13;6.10;99.90
64796;DHT22;51229;51.980;6.722;2023-05-03T02:08:38;6.00;99.90
64796;DHT22;51229;51.980;6.722;2023-05-03T02:11:04;6.00;99.90
64796;DHT22;51229;51.980;6.722;2023-05-03T02:13:31;6.00;99.90
64796;DHT22;51229;51.980;6.722;2023-05-03T02:15:56;5.90;99.90
64796;DHT22;51229;51.980;6.722;2023-05-03T02:18:22;5.90;99.90
64796;DHT22;51229;51.980;6.722;2023-05-03T02:20:48;5.90;99.90
64796;DHT22;51229;51.980;6.722;2023-05-03T02:23:13;5.80;99.90
64796;DHT22;51229;51.980;6.722;2023-05-03T02:25:40;5.80;99.90
64796;DHT22;51229;51.980;6.722;2023-05-03T02:28:05;5.80;99.90
64796;DHT22;51229;51.980;6.722;2023-05-03T02:30:32;5.80;99.90
64796;DHT22;51229;51.980;6.722;2023-05-03T02:32:58;5.80;99.90
64796;DHT22;51229;51.980;6.722;2023-05-03T02:35:24;5.70;99.90
64796;DHT22;51229;51.980;6.722;2023-05-03T02:37:50;5.70;99.90
64796;DHT22;51229;51.980;6.722;2023-05-03T02:40:16;5.60;99.90
64796;DHT22;51229;51.980;6.722;2023-05-03T02:42:45;5.60;99.90
64796;DHT22;51229;51.980;6.722;2023-05-03T02:45:13;5.50;99.90
64796;DHT22;51229;51.980;6.722;2023-05-03T02:47:39;5.50;99.90
64796;DHT22;51229;51.980;6.722;2023-05-03T02:50:05;5.50;99.90
64796;DHT22;51229;51.980;6.722;2023-05-03T02:52:35;5.50;99.90
64796;DHT22;51229;51.980;6.722;2023-05-03T02:55:00;5.40;99.90
64796;DHT22;51229;51.980;6.722;2023-05-03T02:57:26;5.40;99.90
64796;DHT22;51229;51.980;6.722;2023-05-03T02:59:54;5.40;99.90
64796;DHT22;51229;51.980;6.722;2023-05-03T03:02:20;5.30;99.90
64796;DHT22;51229;51.980;6.722;2023-05-03T03:04:46;5.30;99.90
64796;DHT22;51229;51.980;6.722;2023-05-03T03:07:12;5.30;99.90
64796;DHT22;51229;51.980;6.722;2023-05-03T03:09:41;5.30;99.90
64796;DHT22;51229;51.980;6.722;2023-05-03T03:12:06;5.30;99.90
64796;DHT22;51229;51.980;6.722;2023-05-03T03:14:33;5.30;99.90
64796;DHT22;51229;51.980;6.722;2023-05-03T03:16:59;5.30;99.90
64796;DHT22;51229;51.980;6.722;2023-05-03T03:19:25;5.20;99.90
64796;DHT22;51229;51.980;6.722;2023-05-03T03:21:51;5.20;99.90
64796;DHT22;51229;51.980;6.722;2023-05-03T03:24:17;5.20;99.90
64796;DHT22;51229;51.980;6.722;2023-05-03T03:26:42;5.10;99.90
64796;DHT22;51229;51.980;6.722;2023-05-03T03:29:08;5.10;99.90
64796;DHT22;51229;51.980;6.722;2023-05-03T03:31:35;5.20;99.90
64796;DHT22;51229;51.980;6.722;2023-05-03T03:34:01;5.10;99.90
64796;DHT22;51229;51.980;6.722;2023-05-03T03:36:28;5.10;99.90
64796;DHT22;51229;51.980;6.722;2023-05-03T03:38:55;5.00;99.90
64796;DHT22;51229;51.980;6.722;2023-05-03T03:41:21;5.00;99.90
64796;DHT22;51229;51.980;6.722;2023-05-03T03:43:48;5.00;99.90
64796;DHT22;51229;51.980;6.722;2023-05-03T03:46:17;4.90;99.90
64796;DHT22;51229;51.980;6.722;2023-05-03T03:48:44;4.90;99.90
64796;DHT22;51229;51.980;6.722;2023-05-03T03:51:10;4.90;99.90
64796;DHT22;51229;51.980;6.722;2023-05-03T03:53:42;4.90;99.90
64796;DHT22;51229;51.980;6.722;2023-05-03T03:56:07;4.80;99.90
64796;DHT22;51229;51.980;6.722;2023-05-03T03:58:33;4.90;99.90
64796;DHT22;51229;51.980;6.722;2023-05-03T04:01:01;4.70;99.90
64796;DHT22;51229;51.980;6.722;2023-05-03T04:03:28;4.60;99.90
64796;DHT22;51229;51.980;6.722;2023-05-03T04:05:54;4.70;99.90
64796;DHT22;51229;51.980;6.722;2023-05-03T04:08:20;4.70;99.90
64796;DHT22;51229;51.980;6.722;2023-05-03T04:10:47;4.70;99.90
64796;DHT22;51229;51.980;6.722;2023-05-03T04:13:13;4.70;99.90
64796;DHT22;51229;51.980;6.722;2023-05-03T04:15:39;4.70;99.90
64796;DHT22;51229;51.980;6.722;2023-05-03T04:18:05;4.70;99.90
64796;DHT22;51229;51.980;6.722;2023-05-03T04:20:32;4.70;99.90
64796;DHT22;51229;51.980;6.722;2023-05-03T04:23:00;4.60;99.90
64796;DHT22;51229;51.980;6.722;2023-05-03T04:25:28;4.60;99.90
64796;DHT22;51229;51.980;6.722;2023-05-03T04:28:00;4.60;99.90
64796;DHT22;51229;51.980;6.722;2023-05-03T04:30:28;4.70;99.90
64796;DHT22;51229;51.980;6.722;2023-05-03T04:32:57;4.60;99.90
64796;DHT22;51229;51.980;6.722;2023-05-03T04:35:26;4.60;99.90
64796;DHT22;51229;51.980;6.722;2023-05-03T04:37:55;4.50;99.90
64796;DHT22;51229;51.980;6.722;2023-05-03T04:40:24;4.50;99.90
64796;DHT22;51229;51.980;6.722;2023-05-03T04:42:59;4.50;99.90
64796;DHT22;51229;51.980;6.722;2023-05-03T04:45:26;4.50;99.90
64796;DHT22;51229;51.980;6.722;2023-05-03T04:47:53;4.60;99.90
64796;DHT22;51229;51.980;6.722;2023-05-03T04:50:19;4.60;99.90
64796;DHT22;51229;51.980;6.722;2023-05-03T04:52:48;4.60;99.90
64796;DHT22;51229;51.980;6.722;2023-05-03T04:55:14;4.60;99.90
64796;DHT22;51229;51.980;6.722;2023-05-03T04:57:40;4.70;99.90
64796;DHT22;51229;51.980;6.722;2023-05-03T05:00:07;4.50;99.90
64796;DHT22;51229;51.980;6.722;2023-05-03T05:02:39;4.40;99.90
64796;DHT22;51229;51.980;6.722;2023-05-03T05:05:05;4.50;99.90
64796;DHT22;51229;51.980;6.722;2023-05-03T05:07:32;4.40;99.90
64796;DHT22;51229;51.980;6.722;2023-05-03T05:09:58;4.60;99.90
64796;DHT22;51229;51.980;6.722;2023-05-03T05:12:25;4.50;99.90
64796;DHT22;51229;51.980;6.722;2023-05-03T05:14:51;4.40;99.90
64796;DHT22;51229;51.980;6.722;2023-05-03T05:17:17;4.50;99.90
64796;DHT22;51229;51.980;6.722;2023-05-03T05:19:43;4.30;99.90
64796;DHT22;51229;51.980;6.722;2023-05-03T05:22:08;4.20;99.90
64796;DHT22;51229;51.980;6.722;2023-05-03T05:24:43;3.90;99.90
64796;DHT22;51229;51.980;6.722;2023-05-03T05:27:12;3.90;99.90
64796;DHT22;51229;51.980;6.722;2023-05-03T05:29:38;3.80;99.90
64796;DHT22;51229;51.980;6.722;2023-05-03T05:32:04;3.70;99.90
64796;DHT22;51229;51.980;6.722;2023-05-03T05:34:31;3.80;99.90
64796;DHT22;51229;51.980;6.722;2023-05-03T05:36:59;3.70;99.90
64796;DHT22;51229;51.980;6.722;2023-05-03T05:39:25;3.90;99.90
64796;DHT22;51229;51.980;6.722;2023-05-03T05:41:51;4.10;99.90
64796;DHT22;51229;51.980;6.722;2023-05-03T05:44:17;3.70;99.90
64796;DHT22;51229;51.980;6.722;2023-05-03T05:46:45;3.40;99.90
64796;DHT22;51229;51.980;6.722;2023-05-03T05:49:11;3.80;99.90
64796;DHT22;51229;51.980;6.722;2023-05-03T05:51:38;4.40;99.90
64796;DHT22;51229;51.980;6.722;2023-05-03T05:54:04;4.50;99.90
64796;DHT22;51229;51.980;6.722;2023-05-03T05:56:29;4.60;99.90
64796;DHT22;51229;51.980;6.722;2023-05-03T05:58:55;4.40;99.90
64796;DHT22;51229;51.980;6.722;2023-05-03T06:01:23;4.20;99.90
64796;DHT22;51229;51.980;6.722;2023-05-03T06:03:51;4.90;99.90
64796;DHT22;51229;51.980;6.722;2023-05-03T06:06:17;4.60;99.90
64796;DHT22;51229;51.980;6.722;2023-05-03T06:08:42;4.90;99.90
64796;DHT22;51229;51.980;6.722;2023-05-03T06:11:08;4.90;99.90
64796;DHT22;51229;51.980;6.722;2023-05-03T06:13:38;5.10;99.90
64796;DHT22;51229;51.980;6.722;2023-05-03T06:16:07;5.10;99.90
64796;DHT22;51229;51.980;6.722;2023-05-03T06:18:32;4.80;99.90
64796;DHT22;51229;51.980;6.722;2023-05-03T06:20:58;4.90;99.90
64796;DHT22;51229;51.980;6.722;2023-05-03T06:23:24;5.40;99.90
64796;DHT22;51229;51.980;6.722;2023-05-03T06:25:53;5.50;99.90
64796;DHT22;51229;51.980;6.722;2023-05-03T06:28:19;5.80;99.90
64796;DHT22;51229;51.980;6.722;2023-05-03T06:30:51;5.80;99.90
64796;DHT22;51229;51.980;6.722;2023-05-03T06:33:17;6.10;99.90
64796;DHT22;51229;51.980;6.722;2023-05-03T06:35:45;6.50;99.90
64796;DHT22;51229;51.980;6.722;2023-05-03T06:38:16;6.60;99.90
64796;DHT22;51229;51.980;6.722;2023-05-03T06:40:44;6.70;99.90
64796;DHT22;51229;51.980;6.722;2023-05-03T06:43:10;6.70;99.90
64796;DHT22;51229;51.980;6.722;2023-05-03T06:45:42;6.80;99.90
64796;DHT22;51229;51.980;6.722;2023-05-03T06:48:08;6.80;99.90
64796;DHT22;51229;51.980;6.722;2023-05-03T06:50:34;6.60;99.90
64796;DHT22;51229;51.980;6.722;2023-05-03T06:53:00;6.80;99.90
64796;DHT22;51229;51.980;6.722;2023-05-03T06:55:26;7.00;99.90
64796;DHT22;51229;51.980;6.722;2023-05-03T06:57:52;7.30;99.90
64796;DHT22;51229;51.980;6.722;2023-05-03T07:00:18;7.30;99.90
64796;DHT22;51229;51.980;6.722;2023-05-03T07:02:46;7.40;99.90
64796;DHT22;51229;51.980;6.722;2023-05-03T07:05:11;7.90;99.90
64796;DHT22;51229;51.980;6.722;2023-05-03T07:07:37;8.00;99.90
64796;DHT22;51229;51.980;6.722;2023-05-03T07:10:04;8.00;99.90
64796;DHT22;51229;51.980;6.722;2023-05-03T07:12:30;8.00;99.90
64796;DHT22;51229;51.980;6.722;2023-05-03T07:14:56;8.20;99.90
64796;DHT22;51229;51.980;6.722;2023-05-03T07:17:22;8.60;99.90
64796;DHT22;51229;51.980;6.722;2023-05-03T07:19:49;8.60;99.90
64796;DHT22;51229;51.980;6.722;2023-05-03T07:22:15;8.40;99.90
64796;DHT22;51229;51.980;6.722;2023-05-03T07:24:41;8.20;99.90
64796;DHT22;51229;51.980;6.722;2023-05-03T07:27:07;8.50;99.90
64796;DHT22;51229;51.980;6.722;2023-05-03T07:29:33;9.00;99.90
64796;DHT22;51229;51.980;6.722;2023-05-03T07:31:59;9.50;99.90
64796;DHT22;51229;51.980;6.722;2023-05-03T07:34:25;9.20;99.90
64796;DHT22;51229;51.980;6.722;2023-05-03T07:36:51;8.80;99.90
64796;DHT22;51229;51.980;6.722;2023-05-03T07:39:17;9.40;99.90
64796;DHT22;51229;51.980;6.722;2023-05-03T07:41:43;9.30;99.90
64796;DHT22;51229;51.980;6.722;2023-05-03T07:44:09;10.00;99.90
64796;DHT22;51229;51.980;6.722;2023-05-03T07:46:34;10.30;99.90
64796;DHT22;51229;51.980;6.722;2023-05-03T07:49:01;10.20;99.90
64796;DHT22;51229;51.980;6.722;2023-05-03T07:51:28;10.80;99.90
64796;DHT22;51229;51.980;6.722;2023-05-03T07:53:54;11.00;99.90
64796;DHT22;51229;51.980;6.722;2023-05-03T07:56:23;10.80;95.80
64796;DHT22;51229;51.980;6.722;2023-05-03T07:58:48;10.60;99.90
64796;DHT22;51229;51.980;6.722;2023-05-03T08:01:14;11.50;99.90
64796;DHT22;51229;51.980;6.722;2023-05-03T08:03:40;11.50;98.60
64796;DHT22;51229;51.980;6.722;2023-05-03T08:06:07;11.60;99.90
64796;DHT22;51229;51.980;6.722;2023-05-03T08:08:36;11.50;99.90
64796;DHT22;51229;51.980;6.722;2023-05-03T08:11:03;10.50;99.30
64796;DHT22;51229;51.980;6.722;2023-05-03T08:13:28;11.40;99.90
64796;DHT22;51229;51.980;6.722;2023-05-03T08:15:54;12.40;99.90
64796;DHT22;51229;51.980;6.722;2023-05-03T08:18:20;12.60;99.90
64796;DHT22;51229;51.980;6.722;2023-05-03T08:20:46;12.20;93.20
64796;DHT22;51229;51.980;6.722;2023-05-03T08:23:12;12.20;95.60
64796;DHT22;51229;51.980;6.722;2023-05-03T08:25:38;11.90;99.90
64796;DHT22;51229;51.980;6.722;2023-05-03T08:28:03;11.80;98.60
64796;DHT22;51229;51.980;6.722;2023-05-03T08:30:29;11.50;90.60
64796;DHT22;51229;51.980;6.722;2023-05-03T08:32:56;11.70;99.90
64796;DHT22;51229;51.980;6.722;2023-05-03T08:35:21;12.90;99.90
64796;DHT22;51229;51.980;6.722;2023-05-03T08:37:47;14.00;96.40
64796;DHT22;51229;51.980;6.722;2023-05-03T08:40:13;12.80;90.20
64796;DHT22;51229;51.980;6.722;2023-05-03T08:42:44;12.60;99.90
64796;DHT22;51229;51.980;6.722;2023-05-03T08:45:11;13.60;99.90
64796;DHT22;51229;51.980;6.722;2023-05-03T08:47:38;13.80;88.90
64796;DHT22;51229;51.980;6.722;2023-05-03T08:50:08;12.90;94.60
64796;DHT22;51229;51.980;6.722;2023-05-03T08:52:34;13.90;99.90
64796;DHT22;51229;51.980;6.722;2023-05-03T08:55:00;14.50;80.60
64796;DHT22;51229;51.980;6.722;2023-05-03T08:57:26;14.20;99.90
64796;DHT22;51229;51.980;6.722;2023-05-03T08:59:53;15.10;93.80
64796;DHT22;51229;51.980;6.722;2023-05-03T09:02:22;15.60;84.20
64796;DHT22;51229;51.980;6.722;2023-05-03T09:04:47;14.10;79.80
64796;DHT22;51229;51.980;6.722;2023-05-03T09:07:13;13.00;84.00
64796;DHT22;51229;51.980;6.722;2023-05-03T09:09:41;13.70;94.10
64796;DHT22;51229;51.980;6.722;2023-05-03T09:12:08;14.00;99.90
64796;DHT22;51229;51.980;6.722;2023-05-03T09:14:46;15.80;94.30
64796;DHT22;51229;51.980;6.722;2023-05-03T09:17:18;14.30;79.40
64796;DHT22;51229;51.980;6.722;2023-05-03T09:19:52;15.10;95.40
64796;DHT22;51229;51.980;6.722;2023-05-03T09:22:18;16.20;91.10
64796;DHT22;51229;51.980;6.722;2023-05-03T09:24:55;15.80;79.40
64796;DHT22;51229;51.980;6.722;2023-05-03T09:27:22;14.40;73.20
64796;DHT22;51229;51.980;6.722;2023-05-03T09:29:49;14.80;82.50
64796;DHT22;51229;51.980;6.722;2023-05-03T09:32:15;15.60;81.90
64796;DHT22;51229;51.980;6.722;2023-05-03T09:34:42;16.00;99.70
64796;DHT22;51229;51.980;6.722;2023-05-03T09:37:07;16.40;84.30
64796;DHT22;51229;51.980;6.722;2023-05-03T09:39:33;17.00;88.20
64796;DHT22;51229;51.980;6.722;2023-05-03T09:42:15;17.70;95.90
64796;DHT22;51229;51.980;6.722;2023-05-03T09:44:43;17.80;64.50
64796;DHT22;51229;51.980;6.722;2023-05-03T09:47:10;15.20;82.40
64796;DHT22;51229;51.980;6.722;2023-05-03T09:49:37;16.40;83.70
64796;DHT22;51229;51.980;6.722;2023-05-03T09:52:03;15.60;91.80
64796;DHT22;51229;51.980;6.722;2023-05-03T09:54:29;15.90;75.80
64796;DHT22;51229;51.980;6.722;2023-05-03T09:57:02;16.90;88.10
64796;DHT22;51229;51.980;6.722;2023-05-03T09:59:30;16.10;74.20
64796;DHT22;51229;51.980;6.722;2023-05-03T10:01:57;16.90;70.00
64796;DHT22;51229;51.980;6.722;2023-05-03T10:04:27;18.40;93.80
64796;DHT22;51229;51.980;6.722;2023-05-03T10:07:03;19.20;73.10
64796;DHT22;51229;51.980;6.722;2023-05-03T10:09:43;17.40;67.90
64796;DHT22;51229;51.980;6.722;2023-05-03T10:12:11;17.30;75.60
64796;DHT22;51229;51.980;6.722;2023-05-03T10:14:42;17.30;82.50
64796;DHT22;51229;51.980;6.722;2023-05-03T10:17:15;18.00;75.60
64796;DHT22;51229;51.980;6.722;2023-05-03T10:19:50;17.30;65.80
64796;DHT22;51229;51.980;6.722;2023-05-03T10:22:16;18.30;74.00
64796;DHT22;51229;51.980;6.722;2023-05-03T10:25:08;17.90;78.70
64796;DHT22;51229;51.980;6.722;2023-05-03T10:30:28;20.80;66.40
64796;DHT22;51229;51.980;6.722;2023-05-03T10:32:55;19.00;58.80
64796;DHT22;51229;51.980;6.722;2023-05-03T10:35:25;18.40;71.80
64796;DHT22;51229;51.980;6.722;2023-05-03T10:37:51;18.00;61.30
64796;DHT22;51229;51.980;6.722;2023-05-03T10:40:17;18.20;79.70
64796;DHT22;51229;51.980;6.722;2023-05-03T10:42:53;18.60;75.40
64796;DHT22;51229;51.980;6.722;2023-05-03T10:45:24;19.60;87.70
64796;DHT22;51229;51.980;6.722;2023-05-03T10:50:35;20.20;56.30
64796;DHT22;51229;51.980;6.722;2023-05-03T10:53:00;19.70;75.10
64796;DHT22;51229;51.980;6.722;2023-05-03T10:55:26;19.90;57.20
64796;DHT22;51229;51.980;6.722;2023-05-03T10:57:56;19.90;58.80
64796;DHT22;51229;51.980;6.722;2023-05-03T11:03:12;19.50;68.40
64796;DHT22;51229;51.980;6.722;2023-05-03T11:05:41;18.00;64.80
64796;DHT22;51229;51.980;6.722;2023-05-03T11:08:18;20.10;83.30
64796;DHT22;51229;51.980;6.722;2023-05-03T11:10:45;22.00;81.60
64796;DHT22;51229;51.980;6.722;2023-05-03T11:13:12;22.50;66.40
64796;DHT22;51229;51.980;6.722;2023-05-03T11:15:38;22.40;80.00
64796;DHT22;51229;51.980;6.722;2023-05-03T11:18:08;22.80;69.10
64796;DHT22;51229;51.980;6.722;2023-05-03T11:20:36;21.70;56.70
64796;DHT22;51229;51.980;6.722;2023-05-03T11:23:03;20.90;79.20
64796;DHT22;51229;51.980;6.722;2023-05-03T11:25:29;21.60;79.70
64796;DHT22;51229;51.980;6.722;2023-05-03T11:27:55;21.50;80.20
64796;DHT22;51229;51.980;6.722;2023-05-03T11:30:21;22.50;78.90
64796;DHT22;51229;51.980;6.722;2023-05-03T11:32:47;23.00;79.80
64796;DHT22;51229;51.980;6.722;2023-05-03T11:35:14;23.40;79.00
64796;DHT22;51229;51.980;6.722;2023-05-03T11:37:42;23.40;79.20
64796;DHT22;51229;51.980;6.722;2023-05-03T11:40:17;23.30;79.50
64796;DHT22;51229;51.980;6.722;2023-05-03T11:42:51;23.70;78.60
64796;DHT22;51229;51.980;6.722;2023-05-03T11:45:20;23.50;58.00
64796;DHT22;51229;51.980;6.722;2023-05-03T11:47:46;20.70;54.20
64796;DHT22;51229;51.980;6.722;2023-05-03T11:50:12;20.70;84.20
64796;DHT22;51229;51.980;6.722;2023-05-03T11:52:38;22.50;78.10
64796;DHT22;51229;51.980;6.722;2023-05-03T11:55:06;23.70;68.10
64796;DHT22;51229;51.980;6.722;2023-05-03T11:57:32;23.70;77.40
64796;DHT22;51229;51.980;6.722;2023-05-03T12:00:14;22.70;58.10
64796;DHT22;51229;51.980;6.722;2023-05-03T12:02:47;22.00;72.90
64796;DHT22;51229;51.980;6.722;2023-05-03T12:05:13;22.90;64.00
64796;DHT22;51229;51.980;6.722;2023-05-03T12:07:39;23.20;75.50
64796;DHT22;51229;51.980;6.722;2023-05-03T12:10:15;22.90;55.60
64796;DHT22;51229;51.980;6.722;2023-05-03T12:12:56;22.90;76.10
64796;DHT22;51229;51.980;6.722;2023-05-03T12:15:31;23.30;63.70
64796;DHT22;51229;51.980;6.722;2023-05-03T12:18:03;23.60;75.50
64796;DHT22;51229;51.980;6.722;2023-05-03T12:20:29;23.10;76.70
64796;DHT22;51229;51.980;6.722;2023-05-03T12:23:15;23.80;60.90
64796;DHT22;51229;51.980;6.722;2023-05-03T12:25:41;22.90;78.80
64796;DHT22;51229;51.980;6.722;2023-05-03T12:28:07;23.90;75.70
64796;DHT22;51229;51.980;6.722;2023-05-03T12:30:33;24.60;67.90
64796;DHT22;51229;51.980;6.722;2023-05-03T12:32:59;24.30;51.50
64796;DHT22;51229;51.980;6.722;2023-05-03T12:35:25;23.80;69.00
64796;DHT22;51229;51.980;6.722;2023-05-03T12:37:50;23.00;58.10
64796;DHT22;51229;51.980;6.722;2023-05-03T12:40:17;23.30;76.30
64796;DHT22;51229;51.980;6.722;2023-05-03T12:42:45;23.60;51.70
64796;DHT22;51229;51.980;6.722;2023-05-03T12:45:11;22.30;76.90
64796;DHT22;51229;51.980;6.722;2023-05-03T12:47:40;21.80;66.60
64796;DHT22;51229;51.980;6.722;2023-05-03T12:50:06;20.40;73.70
64796;DHT22;51229;51.980;6.722;2023-05-03T12:52:33;20.50;56.90
64796;DHT22;51229;51.980;6.722;2023-05-03T12:55:00;20.50;62.10
64796;DHT22;51229;51.980;6.722;2023-05-03T12:57:26;21.50;77.80
64796;DHT22;51229;51.980;6.722;2023-05-03T12:59:51;21.80;70.40
64796;DHT22;51229;51.980;6.722;2023-05-03T13:02:21;23.10;58.80
64796;DHT22;51229;51.980;6.722;2023-05-03T13:04:47;23.00;73.90
64796;DHT22;51229;51.980;6.722;2023-05-03T13:07:24;22.40;53.40
64796;DHT22;51229;51.980;6.722;2023-05-03T13:09:55;21.50;56.20
64796;DHT22;51229;51.980;6.722;2023-05-03T13:12:22;22.60;53.80
64796;DHT22;51229;51.980;6.722;2023-05-03T13:14:49;22.60;64.80
64796;DHT22;51229;51.980;6.722;2023-05-03T13:17:15;22.10;76.70
64796;DHT22;51229;51.980;6.722;2023-05-03T13:19:42;22.00;73.40
64796;DHT22;51229;51.980;6.722;2023-05-03T13:22:10;23.20;72.70
64796;DHT22;51229;51.980;6.722;2023-05-03T13:24:36;23.20;74.70
64796;DHT22;51229;51.980;6.722;2023-05-03T13:27:03;22.60;53.20
64796;DHT22;51229;51.980;6.722;2023-05-03T13:29:29;23.10;77.40
64796;DHT22;51229;51.980;6.722;2023-05-03T13:31:55;23.70;75.00
64796;DHT22;51229;51.980;6.722;2023-05-03T13:34:21;24.00;57.50
64796;DHT22;51229;51.980;6.722;2023-05-03T13:36:46;23.90;73.70
64796;DHT22;51229;51.980;6.722;2023-05-03T13:39:12;24.10;75.00
64796;DHT22;51229;51.980;6.722;2023-05-03T13:41:39;22.80;64.90
64796;DHT22;51229;51.980;6.722;2023-05-03T13:44:06;21.50;57.90
64796;DHT22;51229;51.980;6.722;2023-05-03T13:46:34;21.60;64.90
64796;DHT22;51229;51.980;6.722;2023-05-03T13:49:01;22.20;74.80
64796;DHT22;51229;51.980;6.722;2023-05-03T13:51:30;22.70;68.50
64796;DHT22;51229;51.980;6.722;2023-05-03T13:53:58;22.10;53.60
64796;DHT22;51229;51.980;6.722;2023-05-03T13:56:24;20.50;52.70
64796;DHT22;51229;51.980;6.722;2023-05-03T13:58:50;20.60;76.00
64796;DHT22;51229;51.980;6.722;2023-05-03T14:01:16;22.30;76.50
64796;DHT22;51229;51.980;6.722;2023-05-03T14:03:42;23.10;52.80
64796;DHT22;51229;51.980;6.722;2023-05-03T14:06:09;21.10;59.50
64796;DHT22;51229;51.980;6.722;2023-05-03T14:08:35;20.70;75.80
64796;DHT22;51229;51.980;6.722;2023-05-03T14:11:01;21.70;57.20
64796;DHT22;51229;51.980;6.722;2023-05-03T14:13:27;21.90;65.10
64796;DHT22;51229;51.980;6.722;2023-05-03T14:15:54;21.80;75.60
64796;DHT22;51229;51.980;6.722;2023-05-03T14:18:20;20.80;54.20
64796;DHT22;51229;51.980;6.722;2023-05-03T14:20:45;21.00;79.40
64796;DHT22;51229;51.980;6.722;2023-05-03T14:23:15;21.30;66.70
64796;DHT22;51229;51.980;6.722;2023-05-03T14:25:41;20.80;63.50
64796;DHT22;51229;51.980;6.722;2023-05-03T14:28:08;21.70;77.80
64796;DHT22;51229;51.980;6.722;2023-05-03T14:30:33;21.60;73.40
64796;DHT22;51229;51.980;6.722;2023-05-03T14:32:59;20.30;68.80
64796;DHT22;51229;51.980;6.722;2023-05-03T14:35:25;20.10;81.20
64796;DHT22;51229;51.980;6.722;2023-05-03T14:37:51;19.90;76.80
64796;DHT22;51229;51.980;6.722;2023-05-03T14:40:17;19.20;73.30
64796;DHT22;51229;51.980;6.722;2023-05-03T14:42:43;18.40;79.20
64796;DHT22;51229;51.980;6.722;2023-05-03T14:45:09;19.20;83.00
64796;DHT22;51229;51.980;6.722;2023-05-03T14:47:41;20.10;68.70
64796;DHT22;51229;51.980;6.722;2023-05-03T14:50:07;19.90;72.70
64796;DHT22;51229;51.980;6.722;2023-05-03T14:52:34;20.70;76.40
64796;DHT22;51229;51.980;6.722;2023-05-03T14:55:00;20.40;61.60
64796;DHT22;51229;51.980;6.722;2023-05-03T14:57:28;18.00;66.80
64796;DHT22;51229;51.980;6.722;2023-05-03T14:59:55;19.50;83.30
64796;DHT22;51229;51.980;6.722;2023-05-03T15:02:21;18.00;62.90
64796;DHT22;51229;51.980;6.722;2023-05-03T15:04:47;16.90;84.60
64796;DHT22;51229;51.980;6.722;2023-05-03T15:07:13;18.20;74.60
64796;DHT22;51229;51.980;6.722;2023-05-03T15:09:39;17.90;65.00
64796;DHT22;51229;51.980;6.722;2023-05-03T15:12:05;17.70;89.30
64796;DHT22;51229;51.980;6.722;2023-05-03T15:14:31;18.50;66.90
64796;DHT22;51229;51.980;6.722;2023-05-03T15:16:57;17.90;61.10
64796;DHT22;51229;51.980;6.722;2023-05-03T15:19:23;16.70;67.30
64796;DHT22;51229;51.980;6.722;2023-05-03T15:21:50;17.90;88.80
64796;DHT22;51229;51.980;6.722;2023-05-03T15:24:16;18.50;70.90
64796;DHT22;51229;51.980;6.722;2023-05-03T15:26:42;18.40;76.30
64796;DHT22;51229;51.980;6.722;2023-05-03T15:29:09;18.40;86.30
64796;DHT22;51229;51.980;6.722;2023-05-03T15:31:35;17.40;91.00
64796;DHT22;51229;51.980;6.722;2023-05-03T15:34:03;17.00;92.70
64796;DHT22;51229;51.980;6.722;2023-05-03T15:36:30;17.10;91.90
64796;DHT22;51229;51.980;6.722;2023-05-03T15:39:01;17.70;79.50
64796;DHT22;51229;51.980;6.722;2023-05-03T15:41:26;17.80;91.20
64796;DHT22;51229;51.980;6.722;2023-05-03T15:43:52;18.80;90.30
64796;DHT22;51229;51.980;6.722;2023-05-03T15:46:18;17.50;65.40
64796;DHT22;51229;51.980;6.722;2023-05-03T15:48:43;17.00;91.50
64796;DHT22;51229;51.980;6.722;2023-05-03T15:51:09;17.00;85.20